Time;durP1;ratioP1;P1;durP2;ratioP2;P2;SDS_P1;SDS_P2;PMS_P1;PMS_P2;Temp;Humidity;BMP_temperature;BMP_pressure;BME280_temperature;BME280_humidity;BME280_pressure;Samples;Min_cycle;Max_cycle;Signal;HPM_P1;HPM_P2
2022/11/23 00:00:42;;;;;;;24.48;13.38;;;8.40;99.90;;;;;;5000434;28;20030;-66
2022/11/23 00:03:15;;;;;;;25.45;14.10;;;8.40;99.90;;;;;;5012396;28;20045;-66
2022/11/23 00:05:41;;;;;;;18.45;12.18;;;8.40;99.90;;;;;;5012824;28;20073;-66
2022/11/23 00:08:06;;;;;;;24.95;13.43;;;8.40;99.90;;;;;;4995933;28;20062;-68
2022/11/23 00:10:32;;;;;;;21.00;12.77;;;8.40;99.90;;;;;;5001248;28;20084;-66
2022/11/23 00:12:58;;;;;;;22.70;13.20;;;8.50;99.90;;;;;;5012468;28;20161;-67
2022/11/23 00:15:23;;;;;;;24.15;13.40;;;8.40;99.90;;;;;;4997944;28;20072;-68
2022/11/23 00:17:49;;;;;;;22.60;13.02;;;8.40;99.90;;;;;;5011893;28;20484;-68
2022/11/23 00:20:15;;;;;;;21.65;12.73;;;8.40;99.90;;;;;;5012314;28;20038;-68
2022/11/23 00:22:40;;;;;;;21.58;12.48;;;8.40;99.90;;;;;;5012668;28;20121;-68
2022/11/23 00:25:06;;;;;;;21.80;12.43;;;8.40;99.90;;;;;;4999874;28;20412;-68
2022/11/23 00:27:32;;;;;;;24.10;12.65;;;8.50;99.90;;;;;;4994382;28;20169;-66
2022/11/23 00:29:57;;;;;;;19.70;12.02;;;8.50;99.90;;;;;;5012207;28;20038;-65
2022/11/23 00:32:23;;;;;;;20.40;11.50;;;8.50;99.90;;;;;;4999442;28;20041;-65
2022/11/23 00:34:48;;;;;;;23.70;12.35;;;8.50;99.90;;;;;;5012052;28;20458;-66
2022/11/23 00:37:14;;;;;;;19.98;12.20;;;8.50;99.90;;;;;;4998192;28;20046;-68
2022/11/23 00:39:39;;;;;;;20.02;11.70;;;8.50;99.90;;;;;;4991621;28;20048;-68
2022/11/23 00:42:05;;;;;;;22.65;12.00;;;8.50;99.90;;;;;;5002531;28;20042;-68
2022/11/23 00:44:30;;;;;;;18.10;10.80;;;8.50;99.90;;;;;;5011689;28;20034;-67
2022/11/23 00:46:56;;;;;;;20.67;11.40;;;8.50;99.90;;;;;;5012462;28;20037;-67
2022/11/23 00:49:21;;;;;;;22.73;11.65;;;8.50;99.90;;;;;;4998235;28;20048;-67
2022/11/23 00:51:47;;;;;;;21.55;11.57;;;8.50;99.90;;;;;;5009017;28;20044;-66
2022/11/23 00:54:12;;;;;;;18.38;11.18;;;8.50;99.90;;;;;;5012017;28;20045;-67
2022/11/23 00:56:38;;;;;;;18.20;10.75;;;8.50;99.90;;;;;;5010900;28;20492;-67
2022/11/23 00:59:04;;;;;;;16.92;10.32;;;8.60;99.90;;;;;;4998930;28;20193;-67
2022/11/23 01:01:35;;;;;;;17.52;11.25;;;8.50;99.90;;;;;;5004146;28;20041;-67
2022/11/23 01:04:02;;;;;;;22.50;10.73;;;8.60;99.90;;;;;;5012139;28;20052;-68
2022/11/23 01:06:34;;;;;;;17.17;10.40;;;8.60;99.90;;;;;;4990179;28;20045;-68
2022/11/23 01:09:01;;;;;;;;;;;8.60;99.90;;;;;;5002765;28;20056;-66
2022/11/23 01:11:28;;;;;;;14.93;9.10;;;8.60;99.90;;;;;;5011422;28;19927;-66
2022/11/23 01:13:54;;;;;;;16.38;10.35;;;8.50;99.90;;;;;;5006748;28;20104;-66
2022/11/23 01:16:28;;;;;;;17.00;9.80;;;8.60;99.90;;;;;;5007399;28;20073;-66
2022/11/23 01:18:56;;;;;;;16.05;9.60;;;8.60;99.90;;;;;;5011512;28;20128;-67
2022/11/23 01:21:22;;;;;;;15.32;9.38;;;8.60;99.90;;;;;;5005097;28;20042;-68
2022/11/23 01:23:47;;;;;;;17.35;10.43;;;8.60;99.90;;;;;;4999389;28;20037;-68
2022/11/23 01:26:13;;;;;;;16.17;9.70;;;8.60;99.90;;;;;;4997934;28;20447;-65
2022/11/23 01:28:39;;;;;;;15.23;9.50;;;8.60;99.90;;;;;;5011490;28;20038;-66
2022/11/23 01:31:10;;;;;;;14.68;9.23;;;8.60;99.90;;;;;;4998728;28;20042;-65
2022/11/23 01:33:36;;;;;;;20.50;10.23;;;8.60;99.90;;;;;;5003650;28;20096;-65
2022/11/23 01:36:21;;;;;;;14.80;9.18;;;8.60;99.90;;;;;;5011447;28;20045;-65
2022/11/23 01:38:47;;;;;;;18.33;9.48;;;8.60;99.90;;;;;;5003486;28;20042;-65
2022/11/23 01:41:19;;;;;;;17.30;9.43;;;8.60;99.90;;;;;;4999209;28;20052;-65
2022/11/23 01:43:44;;;;;;;14.43;9.23;;;8.60;99.90;;;;;;5011831;28;20467;-68
2022/11/23 01:46:11;;;;;;;13.60;9.05;;;8.60;99.90;;;;;;5011654;28;20038;-67
2022/11/23 01:49:00;;;;;;;16.35;10.07;;;8.70;99.90;;;;;;4999084;28;20038;-67
2022/11/23 01:51:39;;;;;;;14.95;8.98;;;8.60;99.90;;;;;;5008200;28;20049;-65
2022/11/23 01:54:19;;;;;;;16.63;9.48;;;8.60;99.90;;;;;;5011588;28;20415;-67
2022/11/23 01:56:52;;;;;;;14.27;9.18;;;8.70;99.90;;;;;;5000855;28;20042;-67
2022/11/23 01:59:20;;;;;;;13.50;8.20;;;8.70;99.90;;;;;;5007551;28;20042;-70
2022/11/23 02:01:46;;;;;;;18.92;9.52;;;8.70;99.90;;;;;;4993516;28;20077;-65
2022/11/23 02:04:16;;;;;;;15.52;9.40;;;8.70;99.90;;;;;;5003908;28;20049;-66
2022/11/23 02:06:45;;;;;;;15.05;9.18;;;8.70;99.90;;;;;;5002865;28;20045;-66
2022/11/23 02:09:11;;;;;;;15.60;9.35;;;8.70;99.90;;;;;;5010970;28;20137;-66
2022/11/23 02:11:36;;;;;;;15.60;9.15;;;8.70;99.90;;;;;;5005277;28;20042;-66
2022/11/23 02:14:02;;;;;;;16.23;9.65;;;8.70;99.90;;;;;;4998998;28;20045;-66
2022/11/23 02:16:28;;;;;;;15.45;9.82;;;8.70;99.90;;;;;;5008633;28;20041;-66
2022/11/23 02:18:54;;;;;;;16.67;9.25;;;8.70;99.90;;;;;;5011464;28;20048;-66
2022/11/23 02:21:20;;;;;;;16.88;8.52;;;8.70;99.90;;;;;;5004697;28;20475;-68
2022/11/23 02:24:00;;;;;;;17.38;9.52;;;8.70;99.90;;;;;;5010769;28;20471;-67
2022/11/23 02:26:33;;;;;;;15.50;9.52;;;8.70;99.90;;;;;;5007749;28;20042;-67
2022/11/23 02:29:14;;;;;;;17.27;9.00;;;8.70;99.90;;;;;;5005078;28;20042;-68
2022/11/23 02:31:40;;;;;;;;;;;8.70;99.90;;;;;;5011230;28;20449;-67
2022/11/23 02:34:05;;;;;;;14.77;8.40;;;8.70;99.90;;;;;;5014645;28;19996;-68
2022/11/23 02:36:51;;;;;;;13.18;8.60;;;8.70;99.90;;;;;;5010968;28;20037;-66
2022/11/23 02:39:31;;;;;;;17.55;8.90;;;8.70;99.90;;;;;;4985722;28;20492;-66
2022/11/23 02:41:57;;;;;;;14.77;8.93;;;8.70;99.90;;;;;;5007808;28;20532;-65
2022/11/23 02:44:41;;;;;;;17.08;9.48;;;8.70;99.90;;;;;;5013541;28;20041;-65
2022/11/23 02:47:07;;;;;;;16.00;9.30;;;8.70;99.90;;;;;;4998613;28;20038;-67
2022/11/23 02:49:34;;;;;;;19.35;9.90;;;8.70;99.90;;;;;;5002968;28;20092;-68
2022/11/23 02:51:59;;;;;;;16.60;9.55;;;8.70;99.90;;;;;;5013997;28;20120;-68
2022/11/23 02:54:25;;;;;;;16.45;10.07;;;8.70;99.90;;;;;;5010934;28;20116;-68
2022/11/23 02:56:51;;;;;;;19.63;10.40;;;8.70;99.90;;;;;;5004295;28;20029;-68
2022/11/23 02:59:17;;;;;;;20.27;10.48;;;8.70;99.90;;;;;;5013901;28;20049;-68
2022/11/23 03:01:42;;;;;;;19.70;10.82;;;8.70;99.90;;;;;;5005059;28;20042;-66
2022/11/23 03:04:09;;;;;;;19.70;10.27;;;8.70;99.90;;;;;;5008429;28;20095;-68
2022/11/23 03:06:35;;;;;;;20.38;10.93;;;8.70;99.90;;;;;;5013674;28;20125;-66
2022/11/23 03:09:00;;;;;;;18.90;10.43;;;8.70;99.90;;;;;;5013949;28;20125;-68
2022/11/23 03:11:26;;;;;;;22.55;10.93;;;8.80;99.90;;;;;;5007979;28;20042;-67
2022/11/23 03:13:51;;;;;;;19.25;11.02;;;8.70;99.90;;;;;;5004063;28;20033;-68
2022/11/23 03:16:17;;;;;;;19.17;10.48;;;8.70;99.90;;;;;;5004032;28;20419;-68
2022/11/23 03:18:42;;;;;;;24.60;10.75;;;8.80;99.90;;;;;;5005085;28;20042;-69
2022/11/23 03:21:08;;;;;;;19.77;11.55;;;8.80;99.90;;;;;;5005470;28;20091;-68
2022/11/23 03:23:35;;;;;;;22.42;11.25;;;8.80;99.90;;;;;;5013627;28;20046;-68
2022/11/23 03:26:00;;;;;;;23.38;11.27;;;8.80;99.90;;;;;;5011740;28;20041;-64
2022/11/23 03:28:26;;;;;;;20.15;10.80;;;8.80;99.90;;;;;;4992159;28;20551;-68
2022/11/23 03:30:52;;;;;;;21.20;11.40;;;8.80;99.90;;;;;;5013057;28;20034;-67
2022/11/23 03:33:18;;;;;;;26.83;12.18;;;8.80;99.90;;;;;;5013304;28;20038;-66
2022/11/23 03:35:44;;;;;;;24.75;12.68;;;8.80;99.90;;;;;;4993717;28;20507;-66
2022/11/23 03:38:10;;;;;;;20.65;11.82;;;8.80;99.90;;;;;;5002665;28;20046;-66
2022/11/23 03:40:36;;;;;;;24.17;12.32;;;8.80;99.90;;;;;;5012526;28;20068;-66
2022/11/23 03:43:02;;;;;;;23.08;12.00;;;8.80;99.90;;;;;;5013213;28;20045;-66
2022/11/23 03:45:27;;;;;;;23.35;12.52;;;8.80;99.90;;;;;;5002052;28;20555;-66
2022/11/23 03:47:53;;;;;;;24.45;12.35;;;8.80;99.90;;;;;;5005372;28;20041;-67
2022/11/23 03:50:18;;;;;;;27.65;13.23;;;8.80;99.90;;;;;;5013148;28;20120;-66
2022/11/23 03:52:44;;;;;;;21.90;12.07;;;8.80;99.90;;;;;;4997164;28;20061;-66
2022/11/23 03:55:09;;;;;;;20.35;11.93;;;8.80;99.90;;;;;;5001773;28;20045;-67
2022/11/23 03:57:35;;;;;;;24.88;11.48;;;8.80;99.90;;;;;;5012223;28;20038;-67
2022/11/23 04:00:01;;;;;;;24.73;12.40;;;8.80;99.90;;;;;;5011810;28;20049;-67
2022/11/23 04:02:26;;;;;;;28.98;12.25;;;8.80;99.90;;;;;;4997539;28;20046;-68
2022/11/23 04:04:52;;;;;;;31.50;12.50;;;8.80;99.90;;;;;;5000538;28;20052;-67
2022/11/23 04:07:18;;;;;;;27.85;13.15;;;8.80;99.90;;;;;;5003064;28;20048;-67
2022/11/23 04:09:43;;;;;;;25.80;12.35;;;8.80;99.90;;;;;;4999493;28;20129;-68
2022/11/23 04:12:09;;;;;;;27.70;12.38;;;8.80;99.90;;;;;;5009548;28;20515;-68
2022/11/23 04:14:35;;;;;;;23.10;12.23;;;8.80;99.90;;;;;;5012541;28;20045;-68
2022/11/23 04:17:01;;;;;;;24.60;12.27;;;8.80;99.90;;;;;;5000393;28;20381;-66
2022/11/23 04:19:27;;;;;;;26.42;12.30;;;8.80;99.90;;;;;;5009509;28;20049;-68
2022/11/23 04:21:53;;;;;;;21.67;11.85;;;8.80;99.90;;;;;;5010950;28;20042;-68
2022/11/23 04:24:18;;;;;;;26.05;12.77;;;8.80;99.90;;;;;;5014922;28;20037;-68
2022/11/23 04:26:44;;;;;;;25.40;12.77;;;8.90;99.90;;;;;;4982292;28;20042;-68
2022/11/23 04:29:09;;;;;;;26.45;12.23;;;8.90;99.90;;;;;;4989764;28;20507;-68
2022/11/23 04:31:35;;;;;;;29.20;13.63;;;8.90;99.90;;;;;;5010980;28;20042;-66
2022/11/23 04:34:00;;;;;;;25.13;12.32;;;8.90;99.90;;;;;;5012127;28;20042;-68
2022/11/23 04:36:26;;;;;;;29.52;12.20;;;8.90;99.90;;;;;;5012583;28;20053;-68
2022/11/23 04:38:52;;;;;;;29.35;12.32;;;8.80;99.90;;;;;;4997878;28;20040;-68
2022/11/23 04:41:18;;;;;;;22.55;12.35;;;8.80;99.90;;;;;;5004494;28;20092;-67
2022/11/23 04:43:44;;;;;;;22.10;11.35;;;8.80;99.90;;;;;;4981567;28;20052;-68
2022/11/23 04:46:11;;;;;;;26.85;12.77;;;8.90;99.90;;;;;;5006747;28;20496;-68
2022/11/23 04:48:36;;;;;;;24.98;12.77;;;8.80;99.90;;;;;;5010022;28;20488;-68
2022/11/23 04:51:02;;;;;;;25.10;12.38;;;8.90;99.90;;;;;;5007205;28;20046;-66
2022/11/23 04:53:27;;;;;;;28.67;12.30;;;8.80;99.90;;;;;;4996157;28;20050;-66
2022/11/23 04:55:53;;;;;;;30.48;12.10;;;8.80;99.90;;;;;;5011709;28;20065;-66
2022/11/23 04:58:18;;;;;;;20.83;11.30;;;8.80;99.90;;;;;;5006975;28;20046;-66
2022/11/23 05:00:44;;;;;;;26.48;12.57;;;8.80;99.90;;;;;;5004560;28;20038;-66
2022/11/23 05:03:10;;;;;;;27.40;11.75;;;8.80;99.90;;;;;;5011505;28;20092;-66
2022/11/23 05:05:39;;;;;;;31.58;12.77;;;8.80;99.90;;;;;;5004122;28;20044;-66
2022/11/23 05:08:05;;;;;;;24.48;11.73;;;8.80;99.90;;;;;;5006637;28;20071;-66
2022/11/23 05:10:31;;;;;;;24.83;10.35;;;8.80;99.90;;;;;;5009744;28;20516;-66
2022/11/23 05:12:56;;;;;;;21.35;11.13;;;8.70;99.90;;;;;;5011695;28;20045;-66
2022/11/23 05:15:22;;;;;;;23.30;11.45;;;8.70;99.90;;;;;;5003189;28;20041;-66
2022/11/23 05:17:47;;;;;;;24.73;10.70;;;8.70;99.90;;;;;;5001904;28;20038;-66
2022/11/23 05:20:13;;;;;;;22.50;10.07;;;8.70;99.90;;;;;;5011572;28;20050;-66
2022/11/23 05:22:39;;;;;;;18.48;9.85;;;8.70;99.90;;;;;;5005605;28;20073;-67
2022/11/23 05:25:04;;;;;;;22.48;10.50;;;8.70;99.90;;;;;;4996379;28;20551;-67
2022/11/23 05:27:30;;;;;;;19.27;8.68;;;8.70;99.90;;;;;;5009340;28;20763;-65
2022/11/23 05:29:55;;;;;;;25.13;10.27;;;8.70;99.90;;;;;;5011432;28;20041;-67
2022/11/23 05:32:21;;;;;;;23.08;9.07;;;8.60;99.90;;;;;;4993529;28;20042;-66
2022/11/23 05:34:47;;;;;;;19.30;9.63;;;8.60;99.90;;;;;;4996432;28;20400;-67
2022/11/23 05:37:12;;;;;;;17.50;8.52;;;8.50;99.90;;;;;;5011358;28;20045;-67
2022/11/23 05:39:38;;;;;;;20.80;8.45;;;8.50;99.90;;;;;;5011537;28;20121;-67
2022/11/23 05:42:04;;;;;;;22.13;8.75;;;8.40;99.90;;;;;;5002086;28;20043;-65
2022/11/23 05:44:29;;;;;;;17.67;8.13;;;8.40;99.90;;;;;;5008399;28;20033;-66
2022/11/23 05:46:55;;;;;;;20.95;8.30;;;8.40;99.90;;;;;;5011339;28;20026;-67
2022/11/23 05:49:21;;;;;;;18.50;7.47;;;8.30;99.90;;;;;;5000008;28;21030;-65
2022/11/23 05:51:46;;;;;;;13.77;7.75;;;8.20;99.90;;;;;;5008959;28;20045;-65
2022/11/23 05:54:12;;;;;;;14.18;7.30;;;8.20;99.90;;;;;;5011446;28;20038;-67
2022/11/23 05:56:37;;;;;;;19.98;7.30;;;8.20;99.90;;;;;;5011608;28;20045;-66
2022/11/23 05:59:04;;;;;;;14.02;6.95;;;8.10;99.90;;;;;;5006829;28;20034;-68
2022/11/23 06:01:30;;;;;;;17.00;7.13;;;8.10;99.90;;;;;;5000969;28;20543;-67
2022/11/23 06:03:56;;;;;;;16.75;6.03;;;8.00;99.90;;;;;;4990999;28;20709;-66
2022/11/23 06:06:22;;;;;;;16.98;6.85;;;7.90;99.90;;;;;;5002763;28;20042;-67
2022/11/23 06:08:47;;;;;;;16.67;6.95;;;7.80;99.90;;;;;;5003892;28;20030;-68
2022/11/23 06:11:13;;;;;;;16.27;6.18;;;7.70;99.90;;;;;;5007650;28;20042;-68
2022/11/23 06:13:38;;;;;;;16.15;6.28;;;7.60;99.90;;;;;;5014506;28;20088;-67
2022/11/23 06:16:04;;;;;;;12.88;6.13;;;7.60;99.90;;;;;;5012500;28;20042;-64
2022/11/23 06:18:30;;;;;;;15.13;5.93;;;7.50;99.90;;;;;;5006892;28;20041;-68
2022/11/23 06:21:01;;;;;;;16.05;5.88;;;7.40;99.90;;;;;;5008249;28;20037;-69
2022/11/23 06:23:27;;;;;;;17.10;5.90;;;7.30;99.90;;;;;;5006033;28;20034;-68
2022/11/23 06:25:53;;;;;;;11.73;6.25;;;7.30;99.90;;;;;;4989796;28;20030;-69
2022/11/23 06:28:18;;;;;;;18.88;6.22;;;7.20;99.90;;;;;;5011625;28;20038;-68
2022/11/23 06:30:44;;;;;;;18.65;6.70;;;7.20;99.90;;;;;;5014838;28;20382;-67
2022/11/23 06:33:10;;;;;;;15.23;5.88;;;7.20;99.90;;;;;;4997496;28;20053;-68
2022/11/23 06:35:35;;;;;;;15.75;5.95;;;7.20;99.90;;;;;;5003726;28;20125;-69
2022/11/23 06:38:01;;;;;;;15.15;6.07;;;7.20;99.90;;;;;;5012040;28;20041;-67
2022/11/23 06:40:27;;;;;;;19.20;6.45;;;7.10;99.90;;;;;;5010348;28;20042;-68
2022/11/23 06:42:59;;;;;;;13.32;5.70;;;7.10;99.90;;;;;;5005548;28;20046;-70
2022/11/23 06:45:26;;;;;;;15.68;5.93;;;7.00;99.90;;;;;;4996257;28;20112;-69
2022/11/23 06:47:55;;;;;;;16.30;5.45;;;7.00;99.90;;;;;;5008984;28;20034;-68
2022/11/23 06:50:21;;;;;;;16.40;6.45;;;7.00;99.90;;;;;;5005507;28;20507;-68
2022/11/23 06:52:47;;;;;;;17.55;6.57;;;6.90;99.90;;;;;;4996388;28;20100;-68
2022/11/23 06:55:12;;;;;;;16.58;6.47;;;6.90;99.90;;;;;;5010840;28;20485;-68
2022/11/23 06:57:38;;;;;;;17.15;5.70;;;6.90;99.90;;;;;;4996054;28;20054;-68
2022/11/23 07:00:04;;;;;;;12.77;5.85;;;6.90;99.90;;;;;;4996710;28;20046;-68
2022/11/23 07:02:30;;;;;;;21.58;6.50;;;6.90;99.90;;;;;;5016624;28;20165;-67
2022/11/23 07:04:55;;;;;;;18.92;5.97;;;7.00;99.90;;;;;;4993492;28;20062;-68
2022/11/23 07:07:21;;;;;;;16.98;6.00;;;7.10;99.90;;;;;;5012357;28;20030;-68
2022/11/23 07:09:46;;;;;;;15.25;6.45;;;7.20;99.90;;;;;;5013298;28;20645;-68
2022/11/23 07:12:12;;;;;;;11.10;5.10;;;7.30;99.90;;;;;;5008925;28;20672;-68
2022/11/23 07:14:38;;;;;;;16.20;6.35;;;7.40;99.90;;;;;;5005794;28;20508;-68
2022/11/23 07:17:03;;;;;;;17.25;6.00;;;7.50;99.90;;;;;;5013608;28;20492;-67
2022/11/23 07:19:29;;;;;;;18.30;6.60;;;7.60;99.90;;;;;;5013808;28;20121;-68
2022/11/23 07:21:54;;;;;;;19.45;6.72;;;7.70;99.90;;;;;;5002062;28;20125;-68
2022/11/23 07:24:20;;;;;;;15.23;6.78;;;7.70;99.90;;;;;;5004695;28;20034;-67
2022/11/23 07:26:45;;;;;;;18.98;7.57;;;7.80;99.90;;;;;;5013071;28;20087;-67
2022/11/23 07:29:11;;;;;;;15.57;6.03;;;7.90;99.90;;;;;;5004596;28;20440;-68
2022/11/23 07:31:36;;;;;;;17.67;6.35;;;8.00;99.90;;;;;;5010108;28;20110;-68
2022/11/23 07:34:02;;;;;;;21.00;6.15;;;8.00;99.90;;;;;;5013512;28;20034;-68
2022/11/23 07:36:28;;;;;;;19.40;6.45;;;8.00;99.90;;;;;;5012574;28;20073;-67
2022/11/23 07:38:53;;;;;;;14.65;6.30;;;8.10;99.90;;;;;;4997932;28;20401;-68
2022/11/23 07:41:19;;;;;;;16.30;6.30;;;8.10;99.90;;;;;;5006532;28;20118;-68
2022/11/23 07:43:44;;;;;;;12.38;5.85;;;8.20;99.90;;;;;;5003889;28;20042;-68
2022/11/23 07:46:10;;;;;;;18.35;6.47;;;8.20;99.90;;;;;;5005364;28;20041;-68
2022/11/23 07:48:35;;;;;;;18.85;6.45;;;8.30;99.90;;;;;;5008077;28;20571;-68
2022/11/23 07:51:01;;;;;;;17.13;5.82;;;8.30;99.90;;;;;;5005969;28;20042;-68
2022/11/23 07:53:27;;;;;;;19.90;6.85;;;8.40;99.90;;;;;;5008596;28;20054;-68
2022/11/23 07:55:59;;;;;;;24.15;7.32;;;8.40;99.90;;;;;;5002198;28;20063;-67
2022/11/23 07:58:25;;;;;;;15.00;6.13;;;8.50;99.90;;;;;;5013055;28;20049;-68
2022/11/23 08:00:51;;;;;;;20.80;6.15;;;8.50;99.90;;;;;;5007792;28;20041;-67
2022/11/23 08:03:16;;;;;;;17.98;6.20;;;8.60;99.90;;;;;;4994799;28;20046;-67
2022/11/23 08:05:42;;;;;;;20.42;5.43;;;8.60;99.90;;;;;;4988356;28;20080;-67
2022/11/23 08:08:07;;;;;;;25.67;6.22;;;8.60;99.90;;;;;;4999755;28;20060;-67
2022/11/23 08:10:33;;;;;;;20.38;6.25;;;8.70;99.90;;;;;;4988142;28;20105;-67
2022/11/23 08:13:00;;;;;;;14.93;5.95;;;8.70;99.90;;;;;;5005843;28;20042;-67
2022/11/23 08:15:30;;;;;;;14.63;5.68;;;8.80;99.90;;;;;;5012600;28;20504;-68
2022/11/23 08:18:00;;;;;;;16.95;6.22;;;8.80;99.90;;;;;;5012621;28;20041;-67
2022/11/23 08:20:27;;;;;;;16.00;5.47;;;8.80;99.90;;;;;;5003179;28;20060;-67
2022/11/23 08:22:56;;;;;;;15.75;5.88;;;8.90;99.90;;;;;;5011620;28;20300;-68
2022/11/23 08:25:22;;;;;;;16.05;6.05;;;8.90;99.90;;;;;;5012287;28;20479;-67
2022/11/23 08:27:54;;;;;;;13.45;5.25;;;9.00;99.90;;;;;;5000296;28;20034;-68
2022/11/23 08:30:20;;;;;;;20.08;5.97;;;9.00;99.90;;;;;;5003921;28;20622;-67
2022/11/23 08:32:46;;;;;;;17.35;5.30;;;9.10;99.90;;;;;;5012272;28;20068;-67
2022/11/23 08:35:11;;;;;;;18.63;5.72;;;9.10;99.90;;;;;;5005557;28;20121;-67
2022/11/23 08:37:37;;;;;;;14.63;5.35;;;9.10;99.90;;;;;;5005979;28;20041;-68
2022/11/23 08:40:02;;;;;;;18.77;5.53;;;9.20;99.90;;;;;;5002376;28;20061;-67
2022/11/23 08:42:28;;;;;;;14.43;5.70;;;9.20;99.90;;;;;;5012240;28;20116;-68
2022/11/23 08:44:54;;;;;;;18.05;5.13;;;9.30;99.90;;;;;;5000681;28;20045;-67
2022/11/23 08:47:19;;;;;;;13.10;5.25;;;9.30;99.90;;;;;;5009572;28;20049;-68
2022/11/23 08:49:45;;;;;;;20.33;6.13;;;9.30;99.90;;;;;;5007185;28;20550;-66
2022/11/23 08:52:10;;;;;;;15.20;5.15;;;9.30;99.90;;;;;;4990729;28;20046;-68
2022/11/23 08:54:36;;;;;;;15.95;4.60;;;9.30;99.90;;;;;;5004494;28;20416;-67
2022/11/23 08:57:02;;;;;;;17.38;5.35;;;9.40;99.90;;;;;;5009191;28;20038;-67
2022/11/23 08:59:27;;;;;;;17.20;4.80;;;9.40;99.90;;;;;;5009729;28;20168;-68
2022/11/23 09:01:53;;;;;;;12.48;4.65;;;9.50;99.90;;;;;;5010484;28;20037;-68
2022/11/23 09:04:18;;;;;;;15.82;4.75;;;9.50;99.90;;;;;;5005616;28;20041;-67
2022/11/23 09:06:44;;;;;;;15.35;4.60;;;9.60;99.90;;;;;;5004054;28;20033;-67
2022/11/23 09:09:10;;;;;;;18.60;4.72;;;9.60;99.90;;;;;;4996125;28;20074;-68
2022/11/23 09:11:35;;;;;;;18.13;5.63;;;9.60;99.90;;;;;;5008146;28;20507;-67
2022/11/23 09:14:01;;;;;;;13.43;5.10;;;9.70;99.90;;;;;;5011799;28;20042;-68
2022/11/23 09:16:27;;;;;;;16.58;4.40;;;9.70;99.90;;;;;;5005268;28;20156;-67
2022/11/23 09:18:56;;;;;;;10.55;3.90;;;9.70;99.90;;;;;;5003329;28;20113;-67
2022/11/23 09:21:23;;;;;;;17.50;5.00;;;9.70;99.90;;;;;;5010487;28;20052;-67
2022/11/23 09:23:49;;;;;;;14.52;4.88;;;9.80;99.90;;;;;;5012247;28;20037;-67
2022/11/23 09:26:14;;;;;;;13.02;4.07;;;9.90;99.90;;;;;;5003160;28;20439;-69
2022/11/23 09:28:40;;;;;;;16.65;4.53;;;10.00;99.90;;;;;;5005844;28;20092;-68
2022/11/23 09:31:05;;;;;;;11.93;3.97;;;10.00;99.90;;;;;;5011293;28;20042;-68
2022/11/23 09:33:31;;;;;;;11.32;3.95;;;10.00;99.90;;;;;;5010338;28;20045;-68
2022/11/23 09:35:58;;;;;;;14.43;3.85;;;9.90;99.90;;;;;;5006494;28;20124;-68
2022/11/23 09:38:24;;;;;;;12.50;3.85;;;9.90;99.90;;;;;;5005559;28;20129;-68
2022/11/23 09:41:01;;;;;;;15.20;3.80;;;9.90;99.90;;;;;;5015609;28;20466;-67
2022/11/23 09:43:50;;;;;;;13.02;3.92;;;9.80;99.90;;;;;;5004025;28;20126;-67
2022/11/23 09:46:32;;;;;;;15.27;3.95;;;9.80;99.90;;;;;;5011131;28;20389;-66
2022/11/23 09:49:04;;;;;;;12.20;3.78;;;9.70;99.90;;;;;;4976496;28;20054;-68
2022/11/23 09:51:30;;;;;;;12.88;3.28;;;9.70;99.90;;;;;;5004647;28;20048;-66
2022/11/23 09:54:01;;;;;;;16.38;3.75;;;9.70;99.90;;;;;;5015281;28;20038;-67
2022/11/23 09:56:31;;;;;;;14.27;3.65;;;9.60;99.90;;;;;;5015293;28;20044;-66
2022/11/23 09:59:00;;;;;;;9.30;3.33;;;9.60;99.90;;;;;;5006230;28;20046;-66
2022/11/23 10:01:26;;;;;;;16.27;3.88;;;9.60;99.90;;;;;;4994501;28;20050;-67
2022/11/23 10:03:53;;;;;;;10.75;3.30;;;9.60;99.90;;;;;;5015259;28;20049;-66
2022/11/23 10:06:21;;;;;;;12.77;3.75;;;9.60;99.90;;;;;;5014975;28;20066;-66
2022/11/23 10:08:54;;;;;;;12.77;3.63;;;9.60;99.90;;;;;;5012082;28;20113;-67
2022/11/23 10:11:38;;;;;;;14.90;3.45;;;9.50;99.90;;;;;;5006503;28;20046;-65
2022/11/23 10:14:19;;;;;;;18.15;3.88;;;9.40;99.90;;;;;;5081812;22;20553;-69
2022/11/23 10:17:06;;;;;;;8.52;3.47;;;9.30;99.90;;;;;;5061156;28;20039;-66
2022/11/23 10:20:15;;;;;;;13.35;3.33;;;9.30;99.90;;;;;;5035807;28;20127;-66
2022/11/23 10:22:58;;;;;;;13.85;3.30;;;9.30;99.90;;;;;;5036481;28;20045;-66
2022/11/23 10:25:26;;;;;;;14.65;3.15;;;9.30;99.90;;;;;;5058943;28;20154;-66
2022/11/23 10:27:57;;;;;;;14.88;3.95;;;9.40;99.90;;;;;;5035914;28;20069;-66
2022/11/23 10:30:23;;;;;;;19.85;3.53;;;9.40;99.90;;;;;;5041081;28;20052;-66
2022/11/23 10:33:01;;;;;;;16.73;3.80;;;9.50;99.90;;;;;;5033100;28;20049;-66
2022/11/23 10:35:32;;;;;;;12.32;3.53;;;9.60;99.90;;;;;;5036658;28;20049;-67
2022/11/23 10:38:11;;;;;;;13.48;3.80;;;9.70;99.90;;;;;;5056349;28;20063;-66
2022/11/23 10:40:42;;;;;;;16.92;3.60;;;9.80;99.90;;;;;;5073077;28;20048;-66
2022/11/23 10:43:17;;;;;;;17.17;3.90;;;9.80;99.90;;;;;;5050705;28;20036;-66
2022/11/23 10:45:43;;;;;;;14.23;3.58;;;10.00;99.90;;;;;;5053449;28;20047;-66
2022/11/23 10:48:08;;;;;;;14.00;3.53;;;10.10;99.90;;;;;;5051904;28;20036;-66
2022/11/23 10:50:39;;;;;;;15.45;3.67;;;10.30;99.90;;;;;;5037902;28;20040;-66
2022/11/23 10:53:04;;;;;;;15.77;3.75;;;10.50;99.90;;;;;;5061616;28;20450;-66
2022/11/23 10:55:33;;;;;;;16.20;3.70;;;10.60;99.90;;;;;;5036326;28;20044;-67
2022/11/23 10:57:59;;;;;;;14.43;3.53;;;10.60;99.90;;;;;;5053806;28;20057;-67
2022/11/23 11:00:27;;;;;;;14.77;3.58;;;10.60;99.90;;;;;;5047171;28;20045;-67
2022/11/23 11:02:55;;;;;;;12.98;2.92;;;10.60;99.90;;;;;;5054975;28;20025;-67
2022/11/23 11:05:21;;;;;;;10.40;2.88;;;10.50;99.90;;;;;;5061906;28;20052;-67
2022/11/23 11:07:47;;;;;;;14.95;3.53;;;10.30;99.90;;;;;;5042461;28;20041;-67
2022/11/23 11:10:36;;;;;;;10.77;2.80;;;10.20;99.90;;;;;;5042451;28;20055;-66
2022/11/23 11:13:02;;;;;;;16.13;3.33;;;10.30;99.90;;;;;;5035804;28;20185;-67
2022/11/23 11:15:28;;;;;;;11.43;2.80;;;10.30;99.90;;;;;;5054778;28;20478;-66
2022/11/23 11:17:56;;;;;;;10.02;2.72;;;10.40;99.90;;;;;;5056310;28;20108;-66
2022/11/23 11:20:31;;;;;;;8.52;2.30;;;10.40;99.90;;;;;;5045247;28;20402;-66
2022/11/23 11:23:16;;;;;;;14.20;2.30;;;10.40;99.90;;;;;;5058846;28;20051;-67
2022/11/23 11:25:42;;;;;;;12.40;2.85;;;10.40;99.90;;;;;;5044689;28;20091;-67
2022/11/23 11:28:36;;;;;;;9.18;2.28;;;10.50;99.90;;;;;;5047155;28;20041;-66
2022/11/23 11:31:24;;;;;;;11.68;2.65;;;10.50;99.90;;;;;;5061453;28;20032;-66
2022/11/23 11:34:16;;;;;;;12.15;3.25;;;10.50;99.90;;;;;;5061218;28;20037;-66
2022/11/23 11:37:16;;;;;;;10.52;2.70;;;10.50;99.90;;;;;;5031172;28;20045;-66
2022/11/23 11:40:02;;;;;;;7.25;2.40;;;10.50;99.90;;;;;;5031167;28;20132;-66
2022/11/23 11:42:47;;;;;;;11.25;2.85;;;10.50;99.90;;;;;;5034465;28;20107;-66
2022/11/23 11:45:25;;;;;;;15.20;2.88;;;10.50;99.90;;;;;;5035477;28;20045;-66
2022/11/23 11:48:00;;;;;;;14.80;2.50;;;10.60;99.90;;;;;;5038338;28;20380;-66
2022/11/23 11:50:35;;;;;;;11.48;2.92;;;10.60;99.90;;;;;;5036758;28;20049;-66
2022/11/23 11:53:09;;;;;;;11.13;2.45;;;10.60;99.90;;;;;;5051457;28;20041;-67
2022/11/23 11:56:07;;;;;;;10.68;2.20;;;10.60;99.90;;;;;;5056367;28;20094;-66
2022/11/23 11:58:35;;;;;;;9.63;2.40;;;10.60;99.90;;;;;;5049142;28;20048;-66
2022/11/23 12:01:16;;;;;;;13.38;2.30;;;10.60;99.90;;;;;;5043704;28;20041;-66
2022/11/23 12:03:49;;;;;;;7.72;2.67;;;10.60;99.90;;;;;;5034380;28;20045;-66
2022/11/23 12:06:24;;;;;;;12.35;2.50;;;10.60;99.90;;;;;;5059416;28;20553;-66
2022/11/23 12:09:29;;;;;;;7.15;2.60;;;10.60;99.90;;;;;;5039528;28;20194;-67
2022/11/23 12:11:56;;;;;;;12.80;2.55;;;10.60;99.90;;;;;;4994680;28;20184;-67
2022/11/23 12:14:22;;;;;;;9.35;2.17;;;10.60;99.90;;;;;;5028436;28;20060;-67
2022/11/23 12:17:10;;;;;;;13.82;2.25;;;10.60;99.90;;;;;;5052142;28;20037;-67
2022/11/23 12:19:36;;;;;;;9.48;2.38;;;10.60;99.90;;;;;;5047642;28;20075;-66
2022/11/23 12:22:21;;;;;;;9.45;2.20;;;10.60;99.90;;;;;;5058976;28;20065;-66
2022/11/23 12:25:10;;;;;;;10.38;2.65;;;10.70;99.90;;;;;;5031898;28;20084;-67
2022/11/23 12:27:56;;;;;;;12.73;2.53;;;10.60;99.90;;;;;;5066964;28;20410;-66
2022/11/23 12:31:05;;;;;;;9.65;2.70;;;10.60;99.90;;;;;;5059781;28;20129;-66
2022/11/23 12:33:42;;;;;;;8.95;2.30;;;10.60;99.90;;;;;;5025754;28;20052;-67
2022/11/23 12:36:52;;;;;;;8.65;2.00;;;10.50;99.90;;;;;;5034302;28;20048;-67
2022/11/23 12:39:50;;;;;;;6.60;2.70;;;10.50;99.90;;;;;;5048134;28;20230;-67
2022/11/23 12:42:37;;;;;;;8.73;2.42;;;10.40;99.90;;;;;;5031882;28;20461;-66
2022/11/23 12:45:16;;;;;;;8.27;1.85;;;10.50;99.90;;;;;;5048411;28;20044;-67
2022/11/23 12:48:09;;;;;;;7.28;2.13;;;10.50;99.90;;;;;;5049256;28;20039;-66
2022/11/23 12:51:21;;;;;;;13.30;2.75;;;10.50;99.90;;;;;;5062698;28;20044;-67
2022/11/23 12:53:53;;;;;;;;;;;10.50;99.90;;;;;;5033342;28;20169;-66